createdAt,value
2022-09-03T00:01:48.251Z,98022.66
2022-09-03T00:03:58.122Z,98024.56
2022-09-03T00:06:13.276Z,98019.41
2022-09-03T00:08:21.041Z,98018.69
2022-09-03T00:10:29.565Z,98016.28
2022-09-03T00:12:36.972Z,98014.69
2022-09-03T00:14:43.803Z,98009.66
2022-09-03T00:16:51.961Z,98016.78
2022-09-03T00:19:02.862Z,98009.66
2022-09-03T00:21:10.207Z,98021.00
2022-09-03T00:23:18.537Z,98028.69
2022-09-03T00:25:26.790Z,98020.69
2022-09-03T00:27:35.295Z,98022.38
2022-09-03T00:29:42.548Z,98016.19
2022-09-03T00:31:48.888Z,98012.81
2022-09-03T00:33:55.594Z,98008.69
2022-09-03T00:36:07.805Z,98006.19
2022-09-03T00:38:12.545Z,98007.22
2022-09-03T00:40:21.761Z,98011.88
2022-09-03T00:42:37.223Z,98006.00
2022-09-03T00:44:51.322Z,98001.88
2022-09-03T00:46:58.845Z,98006.63
2022-09-03T00:49:18.230Z,98008.84
2022-09-03T00:51:32.099Z,98006.56
2022-09-03T00:53:40.270Z,98020.75
2022-09-03T00:55:49.742Z,98020.09
2022-09-03T00:58:01.731Z,98020.31
2022-09-03T01:00:09.107Z,98015.19
2022-09-03T01:02:19.457Z,98019.59
2022-09-03T01:04:38.100Z,98023.16
2022-09-03T01:06:49.100Z,98024.84
2022-09-03T01:09:06.023Z,98016.97
2022-09-03T01:11:20.134Z,98015.47
2022-09-03T01:13:26.807Z,98010.56
2022-09-03T01:15:36.762Z,98017.28
2022-09-03T01:17:50.395Z,98014.00
2022-09-03T01:20:09.961Z,98017.81
2022-09-03T01:22:29.297Z,98018.03
2022-09-03T01:24:49.792Z,98023.56
2022-09-03T01:27:03.627Z,98018.53
2022-09-03T01:29:15.682Z,98024.75
2022-09-03T01:31:27.177Z,98024.53
2022-09-03T01:33:38.407Z,98023.47
2022-09-03T01:35:50.015Z,98025.91
2022-09-03T01:38:01.498Z,98020.44
2022-09-03T01:40:10.893Z,98028.22
2022-09-03T01:42:20.465Z,98015.81
2022-09-03T01:44:39.523Z,98022.00
2022-09-03T01:46:45.868Z,98026.66
2022-09-03T01:48:55.302Z,98024.84
2022-09-03T01:51:06.191Z,98026.44
2022-09-03T01:53:13.383Z,98033.34
2022-09-03T01:55:23.860Z,98030.50
2022-09-03T01:57:41.937Z,98031.69
2022-09-03T01:59:52.546Z,98041.22
2022-09-03T02:02:01.676Z,98034.31
2022-09-03T02:04:17.150Z,98030.19
2022-09-03T02:06:22.309Z,98030.53
2022-09-03T02:08:26.787Z,98035.88
2022-09-03T02:10:34.309Z,98037.66
2022-09-03T02:12:39.597Z,98027.28
2022-09-03T02:14:44.176Z,98031.03
2022-09-03T02:16:51.503Z,98025.16
2022-09-03T02:18:58.647Z,98028.00
2022-09-03T02:21:04.008Z,98035.88
2022-09-03T02:23:08.695Z,98035.88
2022-09-03T02:25:14.121Z,98028.06
2022-09-03T02:27:19.024Z,98023.78
2022-09-03T02:29:24.158Z,98025.44
2022-09-03T02:31:28.989Z,98034.16
2022-09-03T02:33:39.633Z,98037.00
2022-09-03T02:35:44.746Z,98038.06
2022-09-03T02:37:50.314Z,98038.91
2022-09-03T02:39:55.102Z,98029.31
2022-09-03T02:42:01.722Z,98035.63
2022-09-03T02:44:09.314Z,98034.16
2022-09-03T02:46:17.765Z,98031.72
2022-09-03T02:48:25.718Z,98029.31
2022-09-03T02:50:33.023Z,98030.28
2022-09-03T02:52:37.634Z,98029.50
2022-09-03T02:54:45.248Z,98033.16
2022-09-03T02:56:49.971Z,98025.41
2022-09-03T02:58:54.498Z,98016.66
2022-09-03T03:00:59.120Z,98017.63
2022-09-03T03:03:03.680Z,98017.63
2022-09-03T03:05:08.991Z,98015.81
2022-09-03T03:07:16.249Z,98016.88
2022-09-03T03:09:21.170Z,98007.22
2022-09-03T03:11:27.494Z,98017.91
2022-09-03T03:13:32.603Z,98017.06
2022-09-03T03:15:37.181Z,98015.50
2022-09-03T03:17:41.768Z,98019.81
2022-09-03T03:19:46.436Z,98018.22
2022-09-03T03:21:51.087Z,98019.16
2022-09-03T03:23:58.197Z,98023.97
2022-09-03T03:26:03.829Z,98020.72
2022-09-03T03:28:08.932Z,98022.59
2022-09-03T03:30:14.439Z,98025.31
2022-09-03T03:32:19.233Z,98023.63
2022-09-03T03:34:24.460Z,98020.16
2022-09-03T03:36:30.383Z,98022.78
2022-09-03T03:38:35.142Z,98015.97
2022-09-03T03:40:43.004Z,98016.06
2022-09-03T03:42:47.637Z,98013.44
2022-09-03T03:44:52.300Z,98010.06
2022-09-03T03:46:56.885Z,98007.78
2022-09-03T03:49:01.984Z,98009.00
2022-09-03T03:51:07.585Z,98012.13
2022-09-03T03:53:12.269Z,98008.75
2022-09-03T03:55:16.985Z,98014.09
2022-09-03T03:57:24.361Z,98017.00
2022-09-03T03:59:29.025Z,98018.88
2022-09-03T04:01:33.624Z,98019.28
2022-09-03T04:03:38.886Z,98009.81
2022-09-03T04:05:46.270Z,98006.47
2022-09-03T04:07:53.134Z,98004.31
2022-09-03T04:09:57.694Z,98007.97
2022-09-03T04:12:03.664Z,98009.75
2022-09-03T04:14:10.808Z,98011.44
2022-09-03T04:16:16.244Z,98016.69
2022-09-03T04:18:20.809Z,98017.53
2022-09-03T04:20:25.367Z,98012.09
2022-09-03T04:22:31.345Z,98004.25
2022-09-03T04:24:35.958Z,98012.84
2022-09-03T04:26:40.753Z,98008.34
2022-09-03T04:28:45.750Z,98010.75
2022-09-03T04:30:53.016Z,98008.91
2022-09-03T04:32:56.144Z,98012.56
2022-09-03T04:35:00.793Z,98011.16
2022-09-03T04:37:05.373Z,98013.41
2022-09-03T04:39:09.942Z,98006.69
2022-09-03T04:41:15.617Z,98014.84
2022-09-03T04:43:20.136Z,98018.69
2022-09-03T04:45:24.740Z,98025.50
2022-09-03T04:47:32.123Z,98021.84
2022-09-03T04:49:36.726Z,98026.72
2022-09-03T04:51:41.292Z,98028.03
2022-09-03T04:53:46.942Z,98026.78
2022-09-03T04:55:54.489Z,98042.13
2022-09-03T04:57:59.053Z,98050.44
2022-09-03T05:00:03.667Z,98054.53
2022-09-03T05:02:08.383Z,98055.09
2022-09-03T05:04:15.915Z,98052.19
2022-09-03T05:06:20.833Z,98050.09
2022-09-03T05:08:26.724Z,98047.19
2022-09-03T05:10:31.494Z,98045.41
2022-09-03T05:12:36.215Z,98047.81
2022-09-03T05:14:40.781Z,98037.06
2022-09-03T05:16:52.606Z,98040.41
2022-09-03T05:18:59.275Z,98036.09
2022-09-03T05:21:07.361Z,98035.16
2022-09-03T05:23:12.385Z,98035.16
2022-09-03T05:25:16.990Z,98039.47
2022-09-03T05:27:21.549Z,98040.41
2022-09-03T05:29:26.164Z,98035.91
2022-09-03T05:31:32.107Z,98037.69
2022-09-03T05:33:38.010Z,98044.53
2022-09-03T05:35:42.842Z,98048.72
2022-09-03T05:37:50.071Z,98042.44
2022-09-03T05:39:54.785Z,98042.97
2022-09-03T05:41:59.444Z,98042.03
2022-09-03T05:44:06.189Z,98043.91
2022-09-03T05:46:12.204Z,98049.72
2022-09-03T05:48:16.830Z,98057.38
2022-09-03T05:50:21.374Z,98049.19
2022-09-03T05:52:26.007Z,98052.56
2022-09-03T05:54:33.229Z,98044.41
2022-09-03T05:56:40.210Z,98047.59
2022-09-03T05:58:45.510Z,98045.81
2022-09-03T06:00:50.824Z,98059.03
2022-09-03T06:02:55.853Z,98049.34
2022-09-03T06:05:00.535Z,98044.41
2022-09-03T06:07:05.220Z,98046.56
2022-09-03T06:09:10.895Z,98044.69
2022-09-03T06:11:18.082Z,98049.31
2022-09-03T06:13:22.757Z,98061.59
2022-09-03T06:15:27.454Z,98057.19
2022-09-03T06:17:32.046Z,98058.13
2022-09-03T06:19:36.640Z,98059.41
2022-09-03T06:21:42.970Z,98064.44
2022-09-03T06:23:51.822Z,98062.19
2022-09-03T06:26:05.529Z,98063.44
2022-09-03T06:28:12.830Z,98052.44
2022-09-03T06:30:17.707Z,98059.06
2022-09-03T06:32:22.338Z,98052.38
2022-09-03T06:34:27.340Z,98057.19
2022-09-03T06:36:31.962Z,98059.63
2022-09-03T06:38:38.086Z,98061.94
2022-09-03T06:40:42.669Z,98062.06
2022-09-03T06:42:48.015Z,98069.28
2022-09-03T06:44:55.264Z,98064.97
2022-09-03T06:47:01.575Z,98069.69
2022-09-03T06:49:08.992Z,98064.88
2022-09-03T06:51:14.491Z,98068.19
2022-09-03T06:53:19.092Z,98060.78
2022-09-03T06:55:24.246Z,98051.16
2022-09-03T06:57:29.734Z,98038.00
2022-09-03T06:59:34.486Z,98032.66
2022-09-03T07:01:45.341Z,98036.13
2022-09-03T07:03:52.143Z,98035.66
2022-09-03T07:05:56.751Z,98036.84
2022-09-03T07:08:01.332Z,98044.97
2022-09-03T07:10:06.521Z,98037.25
2022-09-03T07:12:12.220Z,98040.44
2022-09-03T07:14:17.169Z,98030.47
2022-09-03T07:16:22.754Z,98036.34
2022-09-03T07:18:30.168Z,98031.34
2022-09-03T07:20:34.778Z,98027.97
2022-09-03T07:22:39.301Z,98025.50
2022-09-03T07:24:46.987Z,98022.03
2022-09-03T07:26:51.845Z,98036.34
2022-09-03T07:28:57.063Z,98046.06
2022-09-03T07:31:04.913Z,98046.94
2022-09-03T07:33:09.601Z,98056.28
2022-09-03T07:35:16.869Z,98058.56
2022-09-03T07:37:22.033Z,98055.94
2022-09-03T07:39:26.843Z,98060.25
2022-09-03T07:41:33.376Z,98056.03
2022-09-03T07:43:40.127Z,98048.47
2022-09-03T07:45:46.600Z,98050.50
2022-09-03T07:47:53.065Z,98043.31
2022-09-03T07:49:57.687Z,98045.13
2022-09-03T07:52:05.087Z,98050.47
2022-09-03T07:54:11.572Z,98045.78
2022-09-03T07:56:17.240Z,98036.31
2022-09-03T07:58:24.685Z,98035.72
2022-09-03T08:00:29.341Z,98035.09
2022-09-03T08:02:33.951Z,98043.59
2022-09-03T08:04:38.750Z,98037.44
2022-09-03T08:06:43.439Z,98033.22
2022-09-03T08:08:50.730Z,98037.13
2022-09-03T08:10:55.354Z,98028.88
2022-09-03T08:13:00.463Z,98022.72
2022-09-03T08:15:05.322Z,98021.97
2022-09-03T08:17:09.857Z,98019.91
2022-09-03T08:19:14.955Z,98030.44
2022-09-03T08:21:20.884Z,98026.19
2022-09-03T08:23:25.476Z,98027.91
2022-09-03T08:25:33.271Z,98033.72
2022-09-03T08:27:37.845Z,98027.25
2022-09-03T08:29:42.418Z,98028.44
2022-09-03T08:31:49.245Z,98028.22
2022-09-03T08:33:54.645Z,98024.06
2022-09-03T08:35:59.331Z,98027.88
2022-09-03T08:38:07.172Z,98031.06
2022-09-03T08:40:15.491Z,98030.81
2022-09-03T08:42:31.579Z,98028.88
2022-09-03T08:44:48.397Z,98032.06
2022-09-03T08:46:54.435Z,98031.97
2022-09-03T08:48:59.966Z,98032.13
2022-09-03T08:51:04.953Z,98025.56
2022-09-03T08:53:13.992Z,98027.38
2022-09-03T08:55:21.239Z,98028.75
2022-09-03T08:57:28.927Z,98025.53
2022-09-03T08:59:34.623Z,98034.28
2022-09-03T09:01:46.307Z,98028.97
2022-09-03T09:03:54.230Z,98026.88
2022-09-03T09:06:02.252Z,98021.41
2022-09-03T09:08:11.954Z,98031.81
2022-09-03T09:10:19.344Z,98021.22
2022-09-03T09:12:41.397Z,98017.59
2022-09-03T09:14:56.764Z,98018.19
2022-09-03T09:17:04.943Z,98009.28
2022-09-03T09:19:15.961Z,98008.47
2022-09-03T09:21:27.564Z,98012.38
2022-09-03T09:23:34.094Z,98000.53
2022-09-03T09:25:45.628Z,98001.69
2022-09-03T09:27:52.655Z,97992.25
2022-09-03T09:30:01.987Z,97985.56
2022-09-03T09:32:08.043Z,97979.75
2022-09-03T09:34:12.619Z,97979.03
2022-09-03T09:36:19.533Z,97987.41
2022-09-03T09:38:31.305Z,97980.84
2022-09-03T09:40:37.571Z,97982.78
2022-09-03T09:42:44.254Z,97991.72
2022-09-03T09:44:48.863Z,97983.50
2022-09-03T09:47:06.883Z,97992.31
2022-09-03T09:49:21.264Z,97983.09
2022-09-03T09:51:27.037Z,97983.69
2022-09-03T09:53:31.873Z,97989.13
2022-09-03T09:55:39.103Z,97986.19
2022-09-03T09:57:43.711Z,97984.38
2022-09-03T09:59:50.665Z,97984.66
2022-09-03T10:02:06.284Z,97982.00
2022-09-03T10:04:15.011Z,97987.56
2022-09-03T10:06:32.362Z,97986.59
2022-09-03T10:08:37.252Z,97985.06
2022-09-03T10:10:45.886Z,97990.25
2022-09-03T10:12:59.612Z,97987.56
2022-09-03T10:15:06.531Z,97974.75
2022-09-03T10:17:20.063Z,97971.25
2022-09-03T10:19:34.678Z,97973.88
2022-09-03T10:21:44.470Z,97980.81
2022-09-03T10:23:53.817Z,97977.47
2022-09-03T10:26:07.395Z,97977.16
2022-09-03T10:28:13.974Z,97974.63
2022-09-03T10:30:18.624Z,97970.03
2022-09-03T10:32:37.999Z,97971.97
2022-09-03T10:34:49.134Z,97958.13
2022-09-03T10:36:59.747Z,97966.19
2022-09-03T10:39:07.582Z,97969.09
2022-09-03T10:41:19.380Z,97961.38
2022-09-03T10:43:33.223Z,97961.47
2022-09-03T10:45:41.818Z,97953.31
2022-09-03T10:48:01.297Z,97951.00
2022-09-03T10:50:16.561Z,97946.31
2022-09-03T10:52:28.847Z,97953.56
2022-09-03T10:54:39.796Z,97939.56
2022-09-03T10:56:49.352Z,97947.00
2022-09-03T10:59:02.460Z,97950.13
2022-09-03T11:01:11.160Z,97943.56
2022-09-03T11:03:35.762Z,97936.06
2022-09-03T11:05:45.481Z,97935.00
2022-09-03T11:07:53.307Z,97942.84
2022-09-03T11:10:00.562Z,97950.09
2022-09-03T11:12:08.764Z,97944.50
2022-09-03T11:14:15.443Z,97951.06
2022-09-03T11:16:20.790Z,97955.47
2022-09-03T11:18:28.528Z,97947.22
2022-09-03T11:20:33.545Z,97940.09
2022-09-03T11:22:42.442Z,97936.00
2022-09-03T11:24:48.806Z,97933.97
2022-09-03T11:26:56.563Z,97932.34
2022-09-03T11:29:04.212Z,97919.81
2022-09-03T11:31:17.807Z,97913.84
2022-09-03T11:33:25.135Z,97915.34
2022-09-03T11:35:31.543Z,97916.34
2022-09-03T11:37:36.284Z,97923.00
2022-09-03T11:39:44.285Z,97922.81
2022-09-03T11:42:00.107Z,97923.50
2022-09-03T11:44:14.540Z,97917.69
2022-09-03T11:46:30.689Z,97916.66
2022-09-03T11:48:39.381Z,97915.84
2022-09-03T11:50:54.378Z,97919.66
2022-09-03T11:53:12.955Z,97904.34
2022-09-03T11:55:36.098Z,97907.31
2022-09-03T11:57:47.347Z,97907.31
2022-09-03T11:59:51.928Z,97914.69
2022-09-03T12:02:01.699Z,97905.34
2022-09-03T12:04:09.776Z,97910.53
2022-09-03T12:06:27.538Z,97907.34
2022-09-03T12:08:45.768Z,97905.97
2022-09-03T12:11:00.887Z,97903.13
2022-09-03T12:13:15.298Z,97906.59
2022-09-03T12:15:25.434Z,97896.31
2022-09-03T12:17:33.815Z,97899.78
2022-09-03T12:19:40.773Z,97893.81
2022-09-03T12:21:45.375Z,97895.22
2022-09-03T12:23:51.486Z,97885.69
2022-09-03T12:26:07.793Z,97887.69
2022-09-03T12:28:16.329Z,97884.53
2022-09-03T12:30:22.571Z,97888.53
2022-09-03T12:32:27.327Z,97889.53
2022-09-03T12:34:34.667Z,97892.69
2022-09-03T12:36:40.831Z,97896.34
2022-09-03T12:39:10.303Z,97885.19
2022-09-03T12:41:27.287Z,97886.19
2022-09-03T12:43:41.197Z,97889.00
2022-09-03T12:48:15.703Z,97887.34
2022-09-03T12:50:21.412Z,97888.22
2022-09-03T12:52:29.813Z,97894.53
2022-09-03T12:54:34.800Z,97885.22
2022-09-03T12:56:43.546Z,97884.88
2022-09-03T12:58:51.141Z,97887.34
2022-09-03T13:00:57.506Z,97884.81
2022-09-03T13:03:03.860Z,97883.00
2022-09-03T13:05:09.259Z,97886.47
2022-09-03T13:07:16.935Z,97888.63
2022-09-03T13:09:23.818Z,97882.78
2022-09-03T13:11:28.810Z,97885.28
2022-09-03T13:13:37.185Z,97883.94
2022-09-03T13:15:41.862Z,97883.78
2022-09-03T13:18:04.265Z,97877.97
2022-09-03T13:20:20.224Z,97892.28
2022-09-03T13:22:32.534Z,97888.81
2022-09-03T13:24:49.212Z,97891.66
2022-09-03T13:27:01.817Z,97896.00
2022-09-03T13:29:18.689Z,97890.00
2022-09-03T13:31:27.094Z,97897.81
2022-09-03T13:33:36.010Z,97897.34
2022-09-03T13:35:42.001Z,97898.19
2022-09-03T13:37:48.491Z,97891.22
2022-09-03T13:39:57.406Z,97899.19
2022-09-03T13:42:09.168Z,97890.34
2022-09-03T13:44:19.227Z,97892.72
2022-09-03T13:46:26.531Z,97893.88
2022-09-03T13:48:47.004Z,97896.34
2022-09-03T13:50:59.599Z,97893.50
2022-09-03T13:53:07.803Z,97895.00
2022-09-03T13:55:15.565Z,97894.50
2022-09-03T13:57:27.123Z,97889.88
2022-09-03T13:59:38.301Z,97889.53
2022-09-03T14:01:49.703Z,97896.50
2022-09-03T14:03:56.294Z,97882.50
2022-09-03T14:06:05.741Z,97880.66
2022-09-03T14:08:15.443Z,97880.84
2022-09-03T14:10:24.409Z,97887.00
2022-09-03T14:12:38.582Z,97888.50
2022-09-03T14:14:48.866Z,97881.47
2022-09-03T14:17:00.097Z,97885.66
2022-09-03T14:19:07.522Z,97893.16
2022-09-03T14:21:16.269Z,97890.50
2022-09-03T14:23:27.535Z,97892.34
2022-09-03T14:25:32.767Z,97900.34
2022-09-03T14:27:37.647Z,97889.00
2022-09-03T14:29:52.905Z,97894.81
2022-09-03T14:32:15.085Z,97897.66
2022-09-03T14:34:26.469Z,97895.69
2022-09-03T14:36:39.187Z,97896.16
2022-09-03T14:38:58.751Z,97892.34
2022-09-03T14:41:07.857Z,97884.34
2022-09-03T14:43:19.982Z,97882.19
2022-09-03T14:45:33.458Z,97885.53
2022-09-03T14:47:46.874Z,97881.31
2022-09-03T14:50:05.978Z,97878.00
2022-09-03T14:52:17.718Z,97876.34
2022-09-03T14:54:37.876Z,97878.31
2022-09-03T14:56:52.118Z,97876.31
2022-09-03T14:59:06.702Z,97869.50
2022-09-03T15:01:15.387Z,97874.81
2022-09-03T15:03:34.915Z,97875.47
2022-09-03T15:05:54.844Z,97873.97
2022-09-03T15:08:03.137Z,97875.31
2022-09-03T15:10:16.982Z,97877.97
2022-09-03T15:12:23.932Z,97870.78
2022-09-03T15:14:30.333Z,97875.25
2022-09-03T15:16:42.988Z,97871.88
2022-09-03T15:18:53.801Z,97883.47
2022-09-03T15:21:09.465Z,97890.06
2022-09-03T15:23:26.921Z,97885.03
2022-09-03T15:25:35.678Z,97883.84
2022-09-03T15:27:47.339Z,97883.16
2022-09-03T15:29:54.525Z,97881.81
2022-09-03T15:32:03.698Z,97871.38
2022-09-03T15:34:13.341Z,97869.16
2022-09-03T15:36:23.348Z,97875.13
2022-09-03T15:38:32.739Z,97877.91
2022-09-03T15:40:39.871Z,97888.88
2022-09-03T15:42:46.244Z,97882.22
2022-09-03T15:44:52.605Z,97884.78
2022-09-03T15:47:00.612Z,97888.75
2022-09-03T15:49:09.073Z,97893.22
2022-09-03T15:51:19.076Z,97894.53
2022-09-03T15:53:31.886Z,97895.53
2022-09-03T15:55:38.002Z,97910.63
2022-09-03T15:57:49.917Z,97910.94
2022-09-03T16:00:02.284Z,97912.09
2022-09-03T16:02:13.402Z,97920.19
2022-09-03T16:04:28.305Z,97924.41
2022-09-03T16:06:38.511Z,97920.63
2022-09-03T16:08:50.513Z,97932.56
2022-09-03T16:11:01.883Z,97935.72
2022-09-03T16:13:10.960Z,97961.91
2022-09-03T16:15:23.452Z,98034.34
2022-09-03T16:17:31.168Z,98071.00
2022-09-03T16:19:39.545Z,98196.56
2022-09-03T16:21:49.139Z,98062.69
2022-09-03T16:23:58.894Z,97972.94
2022-09-03T16:26:06.369Z,97890.03
2022-09-03T16:28:15.144Z,98109.09
2022-09-03T16:30:25.069Z,98073.78
2022-09-03T16:32:47.534Z,98171.56
2022-09-03T16:34:57.717Z,98172.16
2022-09-03T16:37:07.389Z,98175.84
2022-09-03T16:39:19.478Z,98175.31
2022-09-03T16:41:29.238Z,98187.81
2022-09-03T16:43:42.508Z,98174.75
2022-09-03T16:45:51.683Z,98180.19
2022-09-03T16:48:08.048Z,98190.47
2022-09-03T16:50:23.715Z,98197.50
2022-09-03T16:52:39.017Z,98197.66
2022-09-03T16:54:57.377Z,98206.69
2022-09-03T16:57:07.589Z,98214.03
2022-09-03T16:59:18.261Z,98215.44
2022-09-03T17:01:44.496Z,98200.88
2022-09-03T17:04:09.873Z,98200.50
2022-09-03T17:06:23.731Z,98202.44
2022-09-03T17:08:34.002Z,98200.19
2022-09-03T17:10:48.077Z,98195.25
2022-09-03T17:12:58.706Z,98187.53
2022-09-03T17:15:18.758Z,98204.03
2022-09-03T17:17:30.463Z,98198.44
2022-09-03T17:19:37.519Z,98196.19
2022-09-03T17:21:51.062Z,98199.47
2022-09-03T17:24:02.610Z,98198.28
2022-09-03T17:26:14.219Z,98198.78
2022-09-03T17:28:28.248Z,98194.34
2022-09-03T17:30:40.911Z,98185.59
2022-09-03T17:32:57.258Z,98189.31
2022-09-03T17:35:09.213Z,98180.16
2022-09-03T17:37:22.277Z,98179.56
2022-09-03T17:39:35.079Z,98181.72
2022-09-03T17:41:46.181Z,98191.09
2022-09-03T17:43:54.662Z,98195.91
2022-09-03T17:46:02.236Z,98203.13
2022-09-03T17:48:26.298Z,98212.25
2022-09-03T17:50:32.149Z,98219.91
2022-09-03T17:52:41.571Z,98214.78
2022-09-03T17:54:50.834Z,98215.97
2022-09-03T17:57:03.551Z,98221.59
2022-09-03T17:59:10.960Z,98223.38
2022-09-03T18:01:18.545Z,98228.66
2022-09-03T18:03:26.717Z,98224.31
2022-09-03T18:05:33.622Z,98226.00
2022-09-03T18:07:45.819Z,98237.06
2022-09-03T18:09:54.961Z,98240.41
2022-09-03T18:12:09.131Z,98235.97
2022-09-03T18:14:19.760Z,98239.56
2022-09-03T18:16:29.091Z,98234.53
2022-09-03T18:18:34.894Z,98244.84
2022-09-03T18:21:20.782Z,98242.81
2022-09-03T18:23:36.450Z,98243.28
2022-09-03T18:25:55.984Z,98239.81
2022-09-03T18:28:17.421Z,98243.16
2022-09-03T18:30:34.422Z,98238.59
2022-09-03T18:32:51.473Z,98242.75
2022-09-03T18:35:08.495Z,98240.50
2022-09-03T18:37:25.699Z,98245.16
2022-09-03T18:39:43.256Z,98252.25
2022-09-03T18:42:07.968Z,98248.78
2022-09-03T18:44:33.129Z,98252.25
2022-09-03T18:49:39.640Z,98268.78
2022-09-03T18:52:01.146Z,98270.91
2022-09-03T18:54:27.608Z,98274.38
2022-09-03T18:56:50.441Z,98287.16
2022-09-03T18:59:15.874Z,98291.31
2022-09-03T19:01:41.894Z,98294.59
2022-09-03T19:04:04.674Z,98301.53
2022-09-03T19:06:29.658Z,98307.41
2022-09-03T19:08:52.166Z,98316.81
2022-09-03T19:11:12.136Z,98318.19
2022-09-03T19:13:36.381Z,98317.59
2022-09-03T19:15:56.639Z,98314.16
2022-09-03T19:18:31.619Z,98321.22
2022-09-03T19:20:52.213Z,98329.41
2022-09-03T19:23:09.164Z,98327.38
2022-09-03T19:25:27.471Z,98328.91
2022-09-03T19:27:59.586Z,98330.69
2022-09-03T19:30:20.597Z,98336.09
2022-09-03T19:32:41.191Z,98335.75
2022-09-03T19:35:07.660Z,98329.97
2022-09-03T19:37:30.881Z,98329.69
2022-09-03T19:39:57.315Z,98322.78
2022-09-03T19:42:18.262Z,98326.25
2022-09-03T19:44:43.047Z,98330.34
2022-09-03T19:47:02.313Z,98332.88
2022-09-03T19:49:24.796Z,98335.75
2022-09-03T19:51:45.615Z,98340.25
2022-09-03T19:54:05.784Z,98335.34
2022-09-03T19:56:26.117Z,98338.28
2022-09-03T19:58:45.763Z,98337.56
2022-09-03T20:01:02.855Z,98349.16
2022-09-03T20:03:20.780Z,98343.56
2022-09-03T20:05:37.936Z,98345.75
2022-09-03T20:07:54.947Z,98347.44
2022-09-03T20:10:16.751Z,98348.38
2022-09-03T20:12:23.676Z,98350.50
2022-09-03T20:14:28.454Z,98357.56
2022-09-03T20:16:35.487Z,98365.03
2022-09-03T20:18:45.597Z,98364.81
2022-09-03T20:20:55.267Z,98370.81
2022-09-03T20:23:02.878Z,98370.38
2022-09-03T20:25:17.929Z,98380.94
2022-09-03T20:27:31.939Z,98385.97
2022-09-03T20:29:54.736Z,98380.84
2022-09-03T20:32:04.499Z,98388.50
2022-09-03T20:34:18.307Z,98389.34
2022-09-03T20:36:26.655Z,98389.34
2022-09-03T20:38:43.761Z,98392.59
2022-09-03T20:40:56.737Z,98403.44
2022-09-03T20:43:15.038Z,98392.31
2022-09-03T20:45:21.629Z,98402.09
2022-09-03T20:47:43.780Z,98402.22
2022-09-03T20:49:55.894Z,98405.34
2022-09-03T20:52:06.547Z,98402.41
2022-09-03T20:54:15.570Z,98402.63
2022-09-03T20:56:28.175Z,98402.63
2022-09-03T20:58:36.741Z,98407.19
2022-09-03T21:00:48.146Z,98413.38
2022-09-03T21:03:12.854Z,98413.50
2022-09-03T21:05:20.216Z,98414.44
2022-09-03T21:07:29.378Z,98411.53
2022-09-03T21:09:45.498Z,98405.59
2022-09-03T21:11:55.859Z,98412.06
2022-09-03T21:14:04.766Z,98393.94
2022-09-03T21:16:23.530Z,98407.00
2022-09-03T21:18:33.172Z,98406.25
2022-09-03T21:20:46.401Z,98403.75
2022-09-03T21:22:58.807Z,98405.84
2022-09-03T21:25:05.970Z,98404.41
2022-09-03T21:27:20.912Z,98397.84
2022-09-03T21:29:28.329Z,98407.13
2022-09-03T21:31:38.500Z,98407.75
2022-09-03T21:33:47.693Z,98412.38
2022-09-03T21:35:54.212Z,98401.53
2022-09-03T21:38:01.169Z,98395.91
2022-09-03T21:40:08.032Z,98398.78
2022-09-03T21:42:20.731Z,98399.72
2022-09-03T21:44:28.575Z,98403.31
2022-09-03T21:46:35.696Z,98402.44
2022-09-03T21:48:43.054Z,98396.47
2022-09-03T21:50:54.032Z,98397.72
2022-09-03T21:53:00.924Z,98400.56
2022-09-03T21:55:06.145Z,98398.03
2022-09-03T21:57:22.479Z,98392.97
2022-09-03T21:59:44.187Z,98376.44
2022-09-03T22:01:55.421Z,98391.94
2022-09-03T22:04:00.035Z,98391.84
2022-09-03T22:06:06.357Z,98378.03
2022-09-03T22:08:15.679Z,98373.50
2022-09-03T22:10:24.014Z,98383.72
2022-09-03T22:12:33.860Z,98364.97
2022-09-03T22:14:43.200Z,98356.25
2022-09-03T22:16:50.322Z,98355.63
2022-09-03T22:18:56.820Z,98352.25
2022-09-03T22:21:05.293Z,98352.84
2022-09-03T22:23:14.057Z,98350.97
2022-09-03T22:25:21.289Z,98329.59
2022-09-03T22:27:29.914Z,98320.13
2022-09-03T22:29:43.800Z,98299.19
2022-09-03T22:31:55.440Z,98295.59
2022-09-03T22:34:06.302Z,98238.25
2022-09-03T22:36:16.321Z,98211.81
2022-09-03T22:38:33.575Z,98138.47
2022-09-03T22:40:42.188Z,98046.19
2022-09-03T22:42:54.213Z,98003.78
2022-09-03T22:45:10.843Z,97900.44
2022-09-03T22:47:21.480Z,98428.66
2022-09-03T22:49:38.174Z,98434.19
2022-09-03T22:51:49.648Z,98427.06
2022-09-03T22:54:03.636Z,98426.09
2022-09-03T22:56:09.895Z,98426.84
2022-09-03T22:58:16.766Z,98427.69
2022-09-03T23:00:24.049Z,98431.56
2022-09-03T23:02:30.196Z,98432.31
2022-09-03T23:04:39.784Z,98427.91
2022-09-03T23:06:51.113Z,98425.69
2022-09-03T23:08:59.468Z,98430.84
2022-09-03T23:11:07.765Z,98431.69
2022-09-03T23:13:13.827Z,98429.06
2022-09-03T23:15:20.935Z,98435.91
2022-09-03T23:19:41.025Z,98434.19
2022-09-03T23:21:53.619Z,98435.78
2022-09-03T23:24:02.639Z,98435.03
2022-09-03T23:26:13.456Z,98433.16
2022-09-03T23:28:21.897Z,98435.78
2022-09-03T23:30:26.609Z,98439.38
2022-09-03T23:32:34.266Z,98436.75
2022-09-03T23:34:40.811Z,98441.16
2022-09-03T23:37:29.578Z,98442.00
2022-09-03T23:39:41.423Z,98440.44
2022-09-03T23:41:50.968Z,98438.75
2022-09-03T23:44:05.791Z,98438.84
2022-09-03T23:46:16.922Z,98441.38
2022-09-03T23:48:30.094Z,98441.38
2022-09-03T23:50:38.676Z,98446.81
2022-09-03T23:52:53.184Z,98446.19
2022-09-03T23:55:05.263Z,98447.88
2022-09-03T23:57:14.062Z,98445.25
2022-09-03T23:59:24.342Z,98438.28
